sensor_id;sensor_type;location;lat;lon;timestamp;temperature;humidity
14687;DHT22;7431;49.440;11.084;2023-03-01T00:02:03;13.80;99.90
14687;DHT22;7431;49.440;11.084;2023-03-01T00:04:30;13.80;99.90
14687;DHT22;7431;49.440;11.084;2023-03-01T00:06:56;13.80;99.90
14687;DHT22;7431;49.440;11.084;2023-03-01T00:09:22;13.80;99.90
14687;DHT22;7431;49.440;11.084;2023-03-01T00:11:47;13.80;99.90
14687;DHT22;7431;49.440;11.084;2023-03-01T00:14:14;13.70;99.90
14687;DHT22;7431;49.440;11.084;2023-03-01T00:16:42;13.80;99.90
14687;DHT22;7431;49.440;11.084;2023-03-01T00:19:14;13.80;99.90
14687;DHT22;7431;49.440;11.084;2023-03-01T00:21:40;13.80;99.90
14687;DHT22;7431;49.440;11.084;2023-03-01T00:24:06;13.70;99.90
14687;DHT22;7431;49.440;11.084;2023-03-01T00:26:32;13.70;99.90
14687;DHT22;7431;49.440;11.084;2023-03-01T00:28:58;13.70;99.90
14687;DHT22;7431;49.440;11.084;2023-03-01T00:31:26;13.70;99.90
14687;DHT22;7431;49.440;11.084;2023-03-01T00:33:57;13.70;99.90
14687;DHT22;7431;49.440;11.084;2023-03-01T00:36:25;13.80;99.90
14687;DHT22;7431;49.440;11.084;2023-03-01T00:38:51;13.70;99.90
14687;DHT22;7431;49.440;11.084;2023-03-01T00:41:18;13.70;99.90
14687;DHT22;7431;49.440;11.084;2023-03-01T00:43:45;13.70;99.90
14687;DHT22;7431;49.440;11.084;2023-03-01T00:46:13;13.70;99.90
14687;DHT22;7431;49.440;11.084;2023-03-01T00:48:40;13.70;99.90
14687;DHT22;7431;49.440;11.084;2023-03-01T00:51:17;13.70;99.90
14687;DHT22;7431;49.440;11.084;2023-03-01T00:53:43;13.70;99.90
14687;DHT22;7431;49.440;11.084;2023-03-01T00:56:11;13.70;99.90
14687;DHT22;7431;49.440;11.084;2023-03-01T00:58:37;13.70;99.90
14687;DHT22;7431;49.440;11.084;2023-03-01T01:01:11;13.70;99.90
14687;DHT22;7431;49.440;11.084;2023-03-01T01:03:44;13.70;99.90
14687;DHT22;7431;49.440;11.084;2023-03-01T01:06:17;13.60;99.90
14687;DHT22;7431;49.440;11.084;2023-03-01T01:08:43;13.70;99.90
14687;DHT22;7431;49.440;11.084;2023-03-01T01:11:12;13.70;99.90
14687;DHT22;7431;49.440;11.084;2023-03-01T01:13:38;13.70;99.90
14687;DHT22;7431;49.440;11.084;2023-03-01T01:16:05;13.70;99.90
14687;DHT22;7431;49.440;11.084;2023-03-01T01:18:30;13.60;99.90
14687;DHT22;7431;49.440;11.084;2023-03-01T01:20:56;13.60;99.90
14687;DHT22;7431;49.440;11.084;2023-03-01T01:23:22;13.60;99.90
14687;DHT22;7431;49.440;11.084;2023-03-01T01:25:47;13.60;99.90
14687;DHT22;7431;49.440;11.084;2023-03-01T01:28:13;13.60;99.90
14687;DHT22;7431;49.440;11.084;2023-03-01T01:30:38;13.60;99.90
14687;DHT22;7431;49.440;11.084;2023-03-01T01:33:04;13.60;99.90
14687;DHT22;7431;49.440;11.084;2023-03-01T01:35:29;13.60;99.90
14687;DHT22;7431;49.440;11.084;2023-03-01T01:37:55;13.60;99.90
14687;DHT22;7431;49.440;11.084;2023-03-01T01:40:20;13.60;99.90
14687;DHT22;7431;49.440;11.084;2023-03-01T01:42:46;13.60;99.90
14687;DHT22;7431;49.440;11.084;2023-03-01T01:45:29;13.60;99.90
14687;DHT22;7431;49.440;11.084;2023-03-01T01:48:02;13.60;99.90
14687;DHT22;7431;49.440;11.084;2023-03-01T01:50:29;13.60;99.90
14687;DHT22;7431;49.440;11.084;2023-03-01T01:53:06;13.60;99.90
14687;DHT22;7431;49.440;11.084;2023-03-01T01:55:33;13.60;99.90
14687;DHT22;7431;49.440;11.084;2023-03-01T01:58:04;13.50;99.90
14687;DHT22;7431;49.440;11.084;2023-03-01T02:00:31;13.60;99.90
14687;DHT22;7431;49.440;11.084;2023-03-01T02:03:03;13.60;99.90
14687;DHT22;7431;49.440;11.084;2023-03-01T02:05:35;13.60;99.90
14687;DHT22;7431;49.440;11.084;2023-03-01T02:08:03;13.60;99.90
14687;DHT22;7431;49.440;11.084;2023-03-01T02:10:29;13.60;99.90
14687;DHT22;7431;49.440;11.084;2023-03-01T02:12:55;13.60;99.90
14687;DHT22;7431;49.440;11.084;2023-03-01T02:15:23;13.60;99.90
14687;DHT22;7431;49.440;11.084;2023-03-01T02:17:49;13.50;99.90
14687;DHT22;7431;49.440;11.084;2023-03-01T02:20:36;13.50;99.90
14687;DHT22;7431;49.440;11.084;2023-03-01T02:23:06;13.50;99.90
14687;DHT22;7431;49.440;11.084;2023-03-01T02:25:56;13.50;99.90
14687;DHT22;7431;49.440;11.084;2023-03-01T02:28:28;13.50;99.90
14687;DHT22;7431;49.440;11.084;2023-03-01T02:30:54;13.50;99.90
14687;DHT22;7431;49.440;11.084;2023-03-01T02:33:39;13.50;99.90
14687;DHT22;7431;49.440;11.084;2023-03-01T02:36:26;13.50;99.90
14687;DHT22;7431;49.440;11.084;2023-03-01T02:38:57;13.50;99.90
14687;DHT22;7431;49.440;11.084;2023-03-01T02:41:24;13.50;99.90
14687;DHT22;7431;49.440;11.084;2023-03-01T02:43:51;13.50;99.90
14687;DHT22;7431;49.440;11.084;2023-03-01T02:46:21;13.50;99.90
14687;DHT22;7431;49.440;11.084;2023-03-01T02:48:53;13.50;99.90
14687;DHT22;7431;49.440;11.084;2023-03-01T02:54:24;13.50;99.90
14687;DHT22;7431;49.440;11.084;2023-03-01T02:56:52;13.50;99.90
14687;DHT22;7431;49.440;11.084;2023-03-01T02:59:21;13.50;99.90
14687;DHT22;7431;49.440;11.084;2023-03-01T03:01:47;13.50;99.90
14687;DHT22;7431;49.440;11.084;2023-03-01T03:04:15;13.50;99.90
14687;DHT22;7431;49.440;11.084;2023-03-01T03:06:47;13.50;99.90
14687;DHT22;7431;49.440;11.084;2023-03-01T03:09:13;13.50;99.90
14687;DHT22;7431;49.440;11.084;2023-03-01T03:11:39;13.50;99.90
14687;DHT22;7431;49.440;11.084;2023-03-01T03:14:10;13.40;99.90
14687;DHT22;7431;49.440;11.084;2023-03-01T03:16:43;13.40;99.90
14687;DHT22;7431;49.440;11.084;2023-03-01T03:19:10;13.40;99.90
14687;DHT22;7431;49.440;11.084;2023-03-01T03:21:36;13.40;99.90
14687;DHT22;7431;49.440;11.084;2023-03-01T03:24:02;13.40;99.90
14687;DHT22;7431;49.440;11.084;2023-03-01T03:26:28;13.40;99.90
14687;DHT22;7431;49.440;11.084;2023-03-01T03:28:54;13.40;99.90
14687;DHT22;7431;49.440;11.084;2023-03-01T03:31:19;13.40;99.90
14687;DHT22;7431;49.440;11.084;2023-03-01T03:33:45;13.40;99.90
14687;DHT22;7431;49.440;11.084;2023-03-01T03:36:16;13.40;99.90
14687;DHT22;7431;49.440;11.084;2023-03-01T03:38:43;13.40;99.90
14687;DHT22;7431;49.440;11.084;2023-03-01T03:41:09;13.40;99.90
14687;DHT22;7431;49.440;11.084;2023-03-01T03:43:36;13.40;99.90
14687;DHT22;7431;49.440;11.084;2023-03-01T03:46:03;13.40;99.90
14687;DHT22;7431;49.440;11.084;2023-03-01T03:48:34;13.40;99.90
14687;DHT22;7431;49.440;11.084;2023-03-01T03:51:00;13.40;99.90
14687;DHT22;7431;49.440;11.084;2023-03-01T03:53:27;13.40;99.90
14687;DHT22;7431;49.440;11.084;2023-03-01T03:55:53;13.40;99.90
14687;DHT22;7431;49.440;11.084;2023-03-01T03:58:20;13.40;99.90
14687;DHT22;7431;49.440;11.084;2023-03-01T04:00:49;13.30;99.90
14687;DHT22;7431;49.440;11.084;2023-03-01T04:03:16;13.40;99.90
14687;DHT22;7431;49.440;11.084;2023-03-01T04:05:42;13.40;99.90
14687;DHT22;7431;49.440;11.084;2023-03-01T04:08:09;13.40;99.90
14687;DHT22;7431;49.440;11.084;2023-03-01T04:10:37;13.30;99.90
14687;DHT22;7431;49.440;11.084;2023-03-01T04:13:04;13.40;99.90
14687;DHT22;7431;49.440;11.084;2023-03-01T04:15:30;13.40;99.90
14687;DHT22;7431;49.440;11.084;2023-03-01T04:17:57;13.30;99.90
14687;DHT22;7431;49.440;11.084;2023-03-01T04:20:26;13.30;99.90
14687;DHT22;7431;49.440;11.084;2023-03-01T04:25:39;13.30;99.90
14687;DHT22;7431;49.440;11.084;2023-03-01T04:28:05;13.30;99.90
14687;DHT22;7431;49.440;11.084;2023-03-01T04:30:31;13.30;99.90
14687;DHT22;7431;49.440;11.084;2023-03-01T04:33:02;13.30;99.90
14687;DHT22;7431;49.440;11.084;2023-03-01T04:35:27;13.30;99.90
14687;DHT22;7431;49.440;11.084;2023-03-01T04:37:53;13.30;99.90
14687;DHT22;7431;49.440;11.084;2023-03-01T04:40:18;13.30;99.90
14687;DHT22;7431;49.440;11.084;2023-03-01T04:42:44;13.20;99.90
14687;DHT22;7431;49.440;11.084;2023-03-01T04:45:10;13.30;99.90
14687;DHT22;7431;49.440;11.084;2023-03-01T04:47:42;13.30;99.90
14687;DHT22;7431;49.440;11.084;2023-03-01T04:50:10;13.30;99.90
14687;DHT22;7431;49.440;11.084;2023-03-01T04:52:36;13.30;99.90
14687;DHT22;7431;49.440;11.084;2023-03-01T04:55:02;13.20;99.90
14687;DHT22;7431;49.440;11.084;2023-03-01T04:57:29;13.30;99.90
14687;DHT22;7431;49.440;11.084;2023-03-01T04:59:54;13.30;99.90
14687;DHT22;7431;49.440;11.084;2023-03-01T05:02:20;13.30;99.90
14687;DHT22;7431;49.440;11.084;2023-03-01T05:04:45;13.30;99.90
14687;DHT22;7431;49.440;11.084;2023-03-01T05:07:11;13.30;99.90
14687;DHT22;7431;49.440;11.084;2023-03-01T05:09:38;13.30;99.90
14687;DHT22;7431;49.440;11.084;2023-03-01T05:12:04;13.30;99.90
14687;DHT22;7431;49.440;11.084;2023-03-01T05:14:30;13.30;99.90
14687;DHT22;7431;49.440;11.084;2023-03-01T05:16:55;13.20;99.90
14687;DHT22;7431;49.440;11.084;2023-03-01T05:19:29;13.20;99.90
14687;DHT22;7431;49.440;11.084;2023-03-01T05:21:56;13.20;99.90
14687;DHT22;7431;49.440;11.084;2023-03-01T05:24:31;13.20;99.90
14687;DHT22;7431;49.440;11.084;2023-03-01T05:26:57;13.20;99.90
14687;DHT22;7431;49.440;11.084;2023-03-01T05:29:24;13.20;99.90
14687;DHT22;7431;49.440;11.084;2023-03-01T05:31:57;13.20;99.90
14687;DHT22;7431;49.440;11.084;2023-03-01T05:34:28;13.20;99.90
14687;DHT22;7431;49.440;11.084;2023-03-01T05:36:54;13.20;99.90
14687;DHT22;7431;49.440;11.084;2023-03-01T05:39:21;13.20;99.90
14687;DHT22;7431;49.440;11.084;2023-03-01T05:41:48;13.20;99.90
14687;DHT22;7431;49.440;11.084;2023-03-01T05:44:13;13.20;99.90
14687;DHT22;7431;49.440;11.084;2023-03-01T05:46:39;13.20;99.90
14687;DHT22;7431;49.440;11.084;2023-03-01T05:49:04;13.20;99.90
14687;DHT22;7431;49.440;11.084;2023-03-01T05:51:30;13.20;99.90
14687;DHT22;7431;49.440;11.084;2023-03-01T05:53:56;13.20;99.90
14687;DHT22;7431;49.440;11.084;2023-03-01T05:56:21;13.20;99.90
14687;DHT22;7431;49.440;11.084;2023-03-01T05:58:48;13.20;99.90
14687;DHT22;7431;49.440;11.084;2023-03-01T06:01:15;13.20;99.90
14687;DHT22;7431;49.440;11.084;2023-03-01T06:03:40;13.20;99.90
14687;DHT22;7431;49.440;11.084;2023-03-01T06:06:06;13.20;99.90
14687;DHT22;7431;49.440;11.084;2023-03-01T06:08:31;13.20;99.90
14687;DHT22;7431;49.440;11.084;2023-03-01T06:10:57;13.20;99.90
14687;DHT22;7431;49.440;11.084;2023-03-01T06:13:23;13.20;99.90
14687;DHT22;7431;49.440;11.084;2023-03-01T06:15:49;13.20;99.90
14687;DHT22;7431;49.440;11.084;2023-03-01T06:18:15;13.20;99.90
14687;DHT22;7431;49.440;11.084;2023-03-01T06:20:40;13.20;99.90
14687;DHT22;7431;49.440;11.084;2023-03-01T06:23:06;13.20;99.90
14687;DHT22;7431;49.440;11.084;2023-03-01T06:25:32;13.20;99.90
14687;DHT22;7431;49.440;11.084;2023-03-01T06:27:57;13.20;99.90
14687;DHT22;7431;49.440;11.084;2023-03-01T06:30:25;13.20;99.90
14687;DHT22;7431;49.440;11.084;2023-03-01T06:32:51;13.20;99.90
14687;DHT22;7431;49.440;11.084;2023-03-01T06:35:18;13.20;99.90
14687;DHT22;7431;49.440;11.084;2023-03-01T06:37:45;13.20;99.90
14687;DHT22;7431;49.440;11.084;2023-03-01T06:40:11;13.20;99.90
14687;DHT22;7431;49.440;11.084;2023-03-01T06:42:38;13.20;99.90
14687;DHT22;7431;49.440;11.084;2023-03-01T06:45:05;13.30;99.90
14687;DHT22;7431;49.440;11.084;2023-03-01T06:47:32;13.40;99.90
14687;DHT22;7431;49.440;11.084;2023-03-01T06:50:02;13.40;99.90
14687;DHT22;7431;49.440;11.084;2023-03-01T06:52:28;13.40;99.90
14687;DHT22;7431;49.440;11.084;2023-03-01T06:54:53;13.40;99.90
14687;DHT22;7431;49.440;11.084;2023-03-01T06:57:19;13.50;99.90
14687;DHT22;7431;49.440;11.084;2023-03-01T06:59:44;13.50;99.90
14687;DHT22;7431;49.440;11.084;2023-03-01T07:02:12;13.50;99.90
14687;DHT22;7431;49.440;11.084;2023-03-01T07:04:38;13.50;99.90
14687;DHT22;7431;49.440;11.084;2023-03-01T07:07:04;13.60;99.90
14687;DHT22;7431;49.440;11.084;2023-03-01T07:09:30;13.70;99.90
14687;DHT22;7431;49.440;11.084;2023-03-01T07:11:56;13.70;99.90
14687;DHT22;7431;49.440;11.084;2023-03-01T07:14:22;13.70;99.90
14687;DHT22;7431;49.440;11.084;2023-03-01T07:16:49;13.70;99.90
14687;DHT22;7431;49.440;11.084;2023-03-01T07:19:15;13.90;99.90
14687;DHT22;7431;49.440;11.084;2023-03-01T07:21:41;13.80;99.90
14687;DHT22;7431;49.440;11.084;2023-03-01T07:24:07;13.90;99.90
14687;DHT22;7431;49.440;11.084;2023-03-01T07:26:33;13.90;99.90
14687;DHT22;7431;49.440;11.084;2023-03-01T07:29:03;13.90;99.90
14687;DHT22;7431;49.440;11.084;2023-03-01T07:31:29;13.90;99.90
14687;DHT22;7431;49.440;11.084;2023-03-01T07:33:55;13.80;99.90
14687;DHT22;7431;49.440;11.084;2023-03-01T07:36:22;13.80;99.90
14687;DHT22;7431;49.440;11.084;2023-03-01T07:38:48;13.80;99.90
14687;DHT22;7431;49.440;11.084;2023-03-01T07:41:14;13.70;99.90
14687;DHT22;7431;49.440;11.084;2023-03-01T07:43:40;13.70;99.90
14687;DHT22;7431;49.440;11.084;2023-03-01T07:46:05;13.70;99.90
14687;DHT22;7431;49.440;11.084;2023-03-01T07:48:32;13.70;99.90
14687;DHT22;7431;49.440;11.084;2023-03-01T07:50:59;13.70;99.90
14687;DHT22;7431;49.440;11.084;2023-03-01T07:53:25;13.70;99.90
14687;DHT22;7431;49.440;11.084;2023-03-01T07:56:09;13.70;99.90
14687;DHT22;7431;49.440;11.084;2023-03-01T07:58:37;13.70;99.90
14687;DHT22;7431;49.440;11.084;2023-03-01T08:01:07;13.70;99.90
14687;DHT22;7431;49.440;11.084;2023-03-01T08:03:33;13.70;99.90
14687;DHT22;7431;49.440;11.084;2023-03-01T08:06:00;13.70;99.90
14687;DHT22;7431;49.440;11.084;2023-03-01T08:08:26;13.70;99.90
14687;DHT22;7431;49.440;11.084;2023-03-01T08:10:52;13.80;99.90
14687;DHT22;7431;49.440;11.084;2023-03-01T08:13:18;13.80;99.90
14687;DHT22;7431;49.440;11.084;2023-03-01T08:15:48;13.80;99.90
14687;DHT22;7431;49.440;11.084;2023-03-01T08:18:14;13.90;99.90
14687;DHT22;7431;49.440;11.084;2023-03-01T08:20:40;13.90;99.90
14687;DHT22;7431;49.440;11.084;2023-03-01T08:23:05;13.90;99.90
14687;DHT22;7431;49.440;11.084;2023-03-01T08:25:31;13.90;99.90
14687;DHT22;7431;49.440;11.084;2023-03-01T08:27:56;14.00;99.90
14687;DHT22;7431;49.440;11.084;2023-03-01T08:30:22;14.00;99.90
14687;DHT22;7431;49.440;11.084;2023-03-01T08:32:49;14.00;99.90
14687;DHT22;7431;49.440;11.084;2023-03-01T08:35:16;14.00;99.90
14687;DHT22;7431;49.440;11.084;2023-03-01T08:37:41;14.00;99.90
14687;DHT22;7431;49.440;11.084;2023-03-01T08:40:08;14.00;99.90
14687;DHT22;7431;49.440;11.084;2023-03-01T08:42:35;14.00;99.90
14687;DHT22;7431;49.440;11.084;2023-03-01T08:45:02;14.00;99.90
14687;DHT22;7431;49.440;11.084;2023-03-01T08:47:27;13.90;99.90
14687;DHT22;7431;49.440;11.084;2023-03-01T08:49:53;14.00;99.90
14687;DHT22;7431;49.440;11.084;2023-03-01T08:52:19;14.00;99.90
14687;DHT22;7431;49.440;11.084;2023-03-01T08:54:47;14.00;99.90
14687;DHT22;7431;49.440;11.084;2023-03-01T08:57:13;14.00;99.90
14687;DHT22;7431;49.440;11.084;2023-03-01T08:59:38;14.00;99.90
14687;DHT22;7431;49.440;11.084;2023-03-01T09:02:08;14.00;99.90
14687;DHT22;7431;49.440;11.084;2023-03-01T09:04:35;14.00;99.90
14687;DHT22;7431;49.440;11.084;2023-03-01T09:07:00;14.00;99.90
14687;DHT22;7431;49.440;11.084;2023-03-01T09:09:26;14.00;99.90
14687;DHT22;7431;49.440;11.084;2023-03-01T09:11:52;14.00;99.90
14687;DHT22;7431;49.440;11.084;2023-03-01T09:14:17;13.90;99.90
14687;DHT22;7431;49.440;11.084;2023-03-01T09:16:43;13.90;99.90
14687;DHT22;7431;49.440;11.084;2023-03-01T09:19:08;13.90;99.90
14687;DHT22;7431;49.440;11.084;2023-03-01T09:21:34;13.90;99.90
14687;DHT22;7431;49.440;11.084;2023-03-01T09:24:00;13.90;99.90
14687;DHT22;7431;49.440;11.084;2023-03-01T09:26:25;13.90;99.90
14687;DHT22;7431;49.440;11.084;2023-03-01T09:28:53;13.90;99.90
14687;DHT22;7431;49.440;11.084;2023-03-01T09:31:20;13.90;99.90
14687;DHT22;7431;49.440;11.084;2023-03-01T09:33:49;13.90;99.90
14687;DHT22;7431;49.440;11.084;2023-03-01T09:36:17;13.90;99.90
14687;DHT22;7431;49.440;11.084;2023-03-01T09:38:43;13.90;99.90
14687;DHT22;7431;49.440;11.084;2023-03-01T09:43:53;13.90;99.90
14687;DHT22;7431;49.440;11.084;2023-03-01T09:46:23;13.90;99.90
14687;DHT22;7431;49.440;11.084;2023-03-01T09:48:55;13.90;99.90
14687;DHT22;7431;49.440;11.084;2023-03-01T09:51:33;13.90;99.90
14687;DHT22;7431;49.440;11.084;2023-03-01T09:54:01;13.90;99.90
14687;DHT22;7431;49.440;11.084;2023-03-01T09:56:36;13.90;99.90
14687;DHT22;7431;49.440;11.084;2023-03-01T09:59:11;13.90;99.90
14687;DHT22;7431;49.440;11.084;2023-03-01T10:04:45;13.90;99.90
14687;DHT22;7431;49.440;11.084;2023-03-01T10:07:22;13.90;99.90
14687;DHT22;7431;49.440;11.084;2023-03-01T10:09:52;13.90;99.90
14687;DHT22;7431;49.440;11.084;2023-03-01T10:12:25;13.90;99.90
14687;DHT22;7431;49.440;11.084;2023-03-01T10:17:58;13.80;99.90
14687;DHT22;7431;49.440;11.084;2023-03-01T10:20:50;13.80;99.90
14687;DHT22;7431;49.440;11.084;2023-03-01T10:23:17;13.80;99.90
14687;DHT22;7431;49.440;11.084;2023-03-01T10:26:04;13.80;99.90
14687;DHT22;7431;49.440;11.084;2023-03-01T10:31:15;13.80;99.90
14687;DHT22;7431;49.440;11.084;2023-03-01T10:33:41;13.80;99.90
14687;DHT22;7431;49.440;11.084;2023-03-01T10:36:08;13.80;99.90
14687;DHT22;7431;49.440;11.084;2023-03-01T10:38:54;13.80;99.90
14687;DHT22;7431;49.440;11.084;2023-03-01T10:41:24;13.80;99.90
14687;DHT22;7431;49.440;11.084;2023-03-01T10:43:55;13.80;99.90
14687;DHT22;7431;49.440;11.084;2023-03-01T10:46:42;13.80;99.90
14687;DHT22;7431;49.440;11.084;2023-03-01T10:49:21;13.80;99.90
14687;DHT22;7431;49.440;11.084;2023-03-01T10:51:50;13.80;99.90
14687;DHT22;7431;49.440;11.084;2023-03-01T10:54:31;13.80;99.90
14687;DHT22;7431;49.440;11.084;2023-03-01T10:57:02;13.80;99.90
14687;DHT22;7431;49.440;11.084;2023-03-01T10:59:29;13.80;99.90
14687;DHT22;7431;49.440;11.084;2023-03-01T11:04:34;13.80;99.90
14687;DHT22;7431;49.440;11.084;2023-03-01T11:07:01;13.80;99.90
14687;DHT22;7431;49.440;11.084;2023-03-01T11:09:31;13.80;99.90
14687;DHT22;7431;49.440;11.084;2023-03-01T11:12:03;13.80;99.90
14687;DHT22;7431;49.440;11.084;2023-03-01T11:14:36;13.80;99.90
14687;DHT22;7431;49.440;11.084;2023-03-01T11:17:33;13.70;99.90
14687;DHT22;7431;49.440;11.084;2023-03-01T11:22:50;13.70;99.90
14687;DHT22;7431;49.440;11.084;2023-03-01T11:25:20;13.70;99.90
14687;DHT22;7431;49.440;11.084;2023-03-01T11:27:48;13.70;99.90
14687;DHT22;7431;49.440;11.084;2023-03-01T11:30:30;13.70;99.90
14687;DHT22;7431;49.440;11.084;2023-03-01T11:33:20;13.70;99.90
14687;DHT22;7431;49.440;11.084;2023-03-01T11:36:05;13.70;99.90
14687;DHT22;7431;49.440;11.084;2023-03-01T11:38:35;13.70;99.90
14687;DHT22;7431;49.440;11.084;2023-03-01T11:43:47;13.60;99.90
14687;DHT22;7431;49.440;11.084;2023-03-01T11:49:14;13.70;99.90
14687;DHT22;7431;49.440;11.084;2023-03-01T11:59:51;13.70;99.90
14687;DHT22;7431;49.440;11.084;2023-03-01T12:05:50;13.70;99.90
14687;DHT22;7431;49.440;11.084;2023-03-01T12:08:49;13.70;99.90
14687;DHT22;7431;49.440;11.084;2023-03-01T12:14:11;13.60;99.90
14687;DHT22;7431;49.440;11.084;2023-03-01T12:16:53;13.50;99.90
14687;DHT22;7431;49.440;11.084;2023-03-01T12:19:45;13.50;99.90
14687;DHT22;7431;49.440;11.084;2023-03-01T12:22:44;13.50;99.90
14687;DHT22;7431;49.440;11.084;2023-03-01T12:38:45;13.50;99.90
14687;DHT22;7431;49.440;11.084;2023-03-01T12:44:09;13.60;99.90
14687;DHT22;7431;49.440;11.084;2023-03-01T12:46:47;13.60;99.90
14687;DHT22;7431;49.440;11.084;2023-03-01T12:52:14;13.60;99.90
14687;DHT22;7431;49.440;11.084;2023-03-01T12:54:40;13.60;99.90
14687;DHT22;7431;49.440;11.084;2023-03-01T12:57:18;13.70;99.90
14687;DHT22;7431;49.440;11.084;2023-03-01T13:02:54;13.70;99.90
14687;DHT22;7431;49.440;11.084;2023-03-01T13:05:42;13.70;99.90
14687;DHT22;7431;49.440;11.084;2023-03-01T13:08:33;13.70;99.90
14687;DHT22;7431;49.440;11.084;2023-03-01T13:11:10;13.70;99.90
14687;DHT22;7431;49.440;11.084;2023-03-01T13:13:37;13.70;99.90
14687;DHT22;7431;49.440;11.084;2023-03-01T13:19:27;13.70;99.90
14687;DHT22;7431;49.440;11.084;2023-03-01T13:22:26;13.70;99.90
14687;DHT22;7431;49.440;11.084;2023-03-01T13:25:03;13.70;99.90
14687;DHT22;7431;49.440;11.084;2023-03-01T13:27:36;13.70;99.90
14687;DHT22;7431;49.440;11.084;2023-03-01T13:30:02;13.70;99.90
14687;DHT22;7431;49.440;11.084;2023-03-01T13:32:37;13.70;99.90
14687;DHT22;7431;49.440;11.084;2023-03-01T13:37:40;13.70;99.90
14687;DHT22;7431;49.440;11.084;2023-03-01T13:42:43;13.70;99.90
14687;DHT22;7431;49.440;11.084;2023-03-01T13:45:47;13.70;99.90
14687;DHT22;7431;49.440;11.084;2023-03-01T13:50:46;13.70;99.90
14687;DHT22;7431;49.440;11.084;2023-03-01T13:53:19;13.70;99.90
14687;DHT22;7431;49.440;11.084;2023-03-01T13:55:48;13.80;99.90
14687;DHT22;7431;49.440;11.084;2023-03-01T13:58:21;13.80;99.90
14687;DHT22;7431;49.440;11.084;2023-03-01T14:00:47;13.80;99.90
14687;DHT22;7431;49.440;11.084;2023-03-01T14:03:17;13.80;99.90
14687;DHT22;7431;49.440;11.084;2023-03-01T14:08:34;13.80;99.90
14687;DHT22;7431;49.440;11.084;2023-03-01T14:11:32;13.80;99.90
14687;DHT22;7431;49.440;11.084;2023-03-01T14:19:24;13.80;99.90
14687;DHT22;7431;49.440;11.084;2023-03-01T14:24:39;13.80;99.90
14687;DHT22;7431;49.440;11.084;2023-03-01T14:27:12;13.80;99.90
14687;DHT22;7431;49.440;11.084;2023-03-01T14:29:39;13.80;99.90
14687;DHT22;7431;49.440;11.084;2023-03-01T14:32:12;13.80;99.90
14687;DHT22;7431;49.440;11.084;2023-03-01T14:34:43;13.80;99.90
14687;DHT22;7431;49.440;11.084;2023-03-01T14:37:30;13.80;99.90
14687;DHT22;7431;49.440;11.084;2023-03-01T14:39:57;13.80;99.90
14687;DHT22;7431;49.440;11.084;2023-03-01T14:42:25;13.90;99.90
14687;DHT22;7431;49.440;11.084;2023-03-01T14:44:54;13.80;99.90
14687;DHT22;7431;49.440;11.084;2023-03-01T14:47:29;13.80;99.90
14687;DHT22;7431;49.440;11.084;2023-03-01T14:50:01;13.80;99.90
14687;DHT22;7431;49.440;11.084;2023-03-01T14:52:36;13.80;99.90
14687;DHT22;7431;49.440;11.084;2023-03-01T14:55:05;13.80;99.90
14687;DHT22;7431;49.440;11.084;2023-03-01T14:57:32;13.80;99.90
14687;DHT22;7431;49.440;11.084;2023-03-01T15:00:00;13.80;99.90
14687;DHT22;7431;49.440;11.084;2023-03-01T15:02:30;13.80;99.90
14687;DHT22;7431;49.440;11.084;2023-03-01T15:04:58;13.80;99.90
14687;DHT22;7431;49.440;11.084;2023-03-01T15:07:32;13.80;99.90
14687;DHT22;7431;49.440;11.084;2023-03-01T15:10:00;13.80;99.90
14687;DHT22;7431;49.440;11.084;2023-03-01T15:14:58;13.80;99.90
14687;DHT22;7431;49.440;11.084;2023-03-01T15:17:31;13.70;99.90
14687;DHT22;7431;49.440;11.084;2023-03-01T15:19:59;13.80;99.90
14687;DHT22;7431;49.440;11.084;2023-03-01T15:22:27;13.80;99.90
14687;DHT22;7431;49.440;11.084;2023-03-01T15:24:54;13.80;99.90
14687;DHT22;7431;49.440;11.084;2023-03-01T15:27:23;13.80;99.90
14687;DHT22;7431;49.440;11.084;2023-03-01T15:32:43;13.80;99.90
14687;DHT22;7431;49.440;11.084;2023-03-01T15:35:43;13.80;99.90
14687;DHT22;7431;49.440;11.084;2023-03-01T15:38:56;13.80;99.90
14687;DHT22;7431;49.440;11.084;2023-03-01T15:41:32;13.80;99.90
14687;DHT22;7431;49.440;11.084;2023-03-01T15:43:59;13.80;99.90
14687;DHT22;7431;49.440;11.084;2023-03-01T15:48:57;13.80;99.90
14687;DHT22;7431;49.440;11.084;2023-03-01T15:51:33;13.80;99.90
14687;DHT22;7431;49.440;11.084;2023-03-01T15:54:02;13.80;99.90
14687;DHT22;7431;49.440;11.084;2023-03-01T15:56:28;13.80;99.90
14687;DHT22;7431;49.440;11.084;2023-03-01T15:58:58;13.80;99.90
14687;DHT22;7431;49.440;11.084;2023-03-01T16:01:24;13.80;99.90
14687;DHT22;7431;49.440;11.084;2023-03-01T16:03:51;13.80;99.90
14687;DHT22;7431;49.440;11.084;2023-03-01T16:06:16;13.80;99.90
14687;DHT22;7431;49.440;11.084;2023-03-01T16:08:42;13.80;99.90
14687;DHT22;7431;49.440;11.084;2023-03-01T16:11:16;13.80;99.90
14687;DHT22;7431;49.440;11.084;2023-03-01T16:13:41;13.80;99.90
14687;DHT22;7431;49.440;11.084;2023-03-01T16:16:10;13.80;99.90
14687;DHT22;7431;49.440;11.084;2023-03-01T16:18:38;13.80;99.90
14687;DHT22;7431;49.440;11.084;2023-03-01T16:21:04;13.80;99.90
14687;DHT22;7431;49.440;11.084;2023-03-01T16:23:30;13.80;99.90
14687;DHT22;7431;49.440;11.084;2023-03-01T16:25:59;13.80;99.90
14687;DHT22;7431;49.440;11.084;2023-03-01T16:28:25;13.80;99.90
14687;DHT22;7431;49.440;11.084;2023-03-01T16:30:51;13.80;99.90
14687;DHT22;7431;49.440;11.084;2023-03-01T16:33:17;13.80;99.90
14687;DHT22;7431;49.440;11.084;2023-03-01T16:35:43;13.80;99.90
14687;DHT22;7431;49.440;11.084;2023-03-01T16:38:09;13.80;99.90
14687;DHT22;7431;49.440;11.084;2023-03-01T16:40:35;13.80;99.90
14687;DHT22;7431;49.440;11.084;2023-03-01T16:43:01;13.80;99.90
14687;DHT22;7431;49.440;11.084;2023-03-01T16:45:28;13.80;99.90
14687;DHT22;7431;49.440;11.084;2023-03-01T16:47:58;13.80;99.90
14687;DHT22;7431;49.440;11.084;2023-03-01T16:50:24;13.80;99.90
14687;DHT22;7431;49.440;11.084;2023-03-01T16:52:50;13.80;99.90
14687;DHT22;7431;49.440;11.084;2023-03-01T16:55:15;13.80;99.90
14687;DHT22;7431;49.440;11.084;2023-03-01T16:57:41;13.80;99.90
14687;DHT22;7431;49.440;11.084;2023-03-01T17:00:07;13.80;99.90
14687;DHT22;7431;49.440;11.084;2023-03-01T17:02:35;13.80;99.90
14687;DHT22;7431;49.440;11.084;2023-03-01T17:05:01;13.80;99.90
14687;DHT22;7431;49.440;11.084;2023-03-01T17:07:28;13.90;99.90
14687;DHT22;7431;49.440;11.084;2023-03-01T17:09:54;13.90;99.90
14687;DHT22;7431;49.440;11.084;2023-03-01T17:12:19;13.90;99.90
14687;DHT22;7431;49.440;11.084;2023-03-01T17:14:45;13.90;99.90
14687;DHT22;7431;49.440;11.084;2023-03-01T17:17:11;13.90;99.90
14687;DHT22;7431;49.440;11.084;2023-03-01T17:19:37;13.90;99.90